sensor_id;sensor_type;location;lat;lon;timestamp;pressure;altitude;pressure_sealevel;temperature;humidity
13367;BME280;6752;52.612;13.630;2022-10-03T00:15:08;101054.69;;;10.81;100.00
13367;BME280;6752;52.612;13.630;2022-10-03T00:25:27;101075.08;;;11.04;100.00
13367;BME280;6752;52.612;13.630;2022-10-03T00:30:26;101078.84;;;11.16;100.00
13367;BME280;6752;52.612;13.630;2022-10-03T00:35:53;101071.88;;;11.23;100.00
13367;BME280;6752;52.612;13.630;2022-10-03T00:52:00;101081.23;;;11.47;100.00
13367;BME280;6752;52.612;13.630;2022-10-03T00:57:10;101087.76;;;11.43;100.00
13367;BME280;6752;52.612;13.630;2022-10-03T01:13:08;101104.95;;;11.47;100.00
13367;BME280;6752;52.612;13.630;2022-10-03T01:18:18;101108.28;;;11.52;100.00
13367;BME280;6752;52.612;13.630;2022-10-03T01:28:52;101102.27;;;11.63;100.00
13367;BME280;6752;52.612;13.630;2022-10-03T01:39:20;101111.39;;;11.66;100.00
13367;BME280;6752;52.612;13.630;2022-10-03T01:44:22;101110.64;;;11.68;100.00
13367;BME280;6752;52.612;13.630;2022-10-03T01:49:32;101109.28;;;11.68;100.00
13367;BME280;6752;52.612;13.630;2022-10-03T01:59:49;101098.27;;;11.65;100.00
13367;BME280;6752;52.612;13.630;2022-10-03T02:04:58;101107.00;;;11.61;100.00
13367;BME280;6752;52.612;13.630;2022-10-03T02:15:20;101123.22;;;11.72;100.00
13367;BME280;6752;52.612;13.630;2022-10-03T02:20:33;101117.12;;;11.73;100.00
13367;BME280;6752;52.612;13.630;2022-10-03T02:25:50;101112.84;;;11.68;100.00
13367;BME280;6752;52.612;13.630;2022-10-03T02:53:18;101141.13;;;11.90;100.00
13367;BME280;6752;52.612;13.630;2022-10-03T03:04:14;101146.95;;;11.85;100.00
13367;BME280;6752;52.612;13.630;2022-10-03T03:09:31;101153.09;;;11.93;100.00
13367;BME280;6752;52.612;13.630;2022-10-03T03:20:27;101161.47;;;11.98;100.00
13367;BME280;6752;52.612;13.630;2022-10-03T03:25:34;101158.86;;;11.94;100.00
13367;BME280;6752;52.612;13.630;2022-10-03T03:30:41;101162.14;;;11.90;100.00
13367;BME280;6752;52.612;13.630;2022-10-03T03:35:59;101161.33;;;12.02;100.00
13367;BME280;6752;52.612;13.630;2022-10-03T03:41:18;101158.53;;;11.96;100.00
13367;BME280;6752;52.612;13.630;2022-10-03T03:46:44;101153.59;;;11.95;100.00
13367;BME280;6752;52.612;13.630;2022-10-03T03:57:32;101172.37;;;12.01;100.00
13367;BME280;6752;52.612;13.630;2022-10-03T04:34:55;101195.28;;;12.07;100.00
13367;BME280;6752;52.612;13.630;2022-10-03T05:01:20;101193.72;;;11.98;100.00
13367;BME280;6752;52.612;13.630;2022-10-03T05:11:40;101200.39;;;11.90;100.00
13367;BME280;6752;52.612;13.630;2022-10-03T05:16:59;101208.53;;;12.00;100.00
13367;BME280;6752;52.612;13.630;2022-10-03T05:21:56;101211.17;;;11.97;100.00
13367;BME280;6752;52.612;13.630;2022-10-03T05:32:34;101225.14;;;11.98;100.00
13367;BME280;6752;52.612;13.630;2022-10-03T05:37:59;101232.27;;;12.03;100.00
13367;BME280;6752;52.612;13.630;2022-10-03T05:42:59;101240.36;;;12.07;100.00
13367;BME280;6752;52.612;13.630;2022-10-03T05:48:30;101237.61;;;12.10;100.00
13367;BME280;6752;52.612;13.630;2022-10-03T05:53:48;101238.36;;;12.08;100.00
13367;BME280;6752;52.612;13.630;2022-10-03T06:19:48;101273.44;;;12.30;100.00
13367;BME280;6752;52.612;13.630;2022-10-03T06:36:10;101301.47;;;12.41;100.00
13367;BME280;6752;52.612;13.630;2022-10-03T06:41:31;101307.20;;;12.55;100.00
13367;BME280;6752;52.612;13.630;2022-10-03T06:47:19;101313.91;;;12.53;100.00
13367;BME280;6752;52.612;13.630;2022-10-03T07:02:28;101324.95;;;12.59;100.00
13367;BME280;6752;52.612;13.630;2022-10-03T07:08:00;101332.47;;;12.67;100.00
13367;BME280;6752;52.612;13.630;2022-10-03T07:23:42;101340.17;;;12.83;100.00
13367;BME280;6752;52.612;13.630;2022-10-03T07:28:56;101340.51;;;12.81;100.00
13367;BME280;6752;52.612;13.630;2022-10-03T07:39:49;101353.58;;;12.72;100.00
13367;BME280;6752;52.612;13.630;2022-10-03T07:50:17;101369.66;;;13.12;100.00
13367;BME280;6752;52.612;13.630;2022-10-03T07:55:30;101369.09;;;13.04;100.00
13367;BME280;6752;52.612;13.630;2022-10-03T08:00:54;101380.24;;;13.05;100.00
13367;BME280;6752;52.612;13.630;2022-10-03T08:06:02;101385.84;;;13.01;100.00
13367;BME280;6752;52.612;13.630;2022-10-03T08:11:22;101390.92;;;13.14;100.00
13367;BME280;6752;52.612;13.630;2022-10-03T08:21:52;101395.66;;;14.15;100.00
13367;BME280;6752;52.612;13.630;2022-10-03T08:32:30;101404.19;;;14.07;100.00
13367;BME280;6752;52.612;13.630;2022-10-03T08:37:49;101401.45;;;14.16;100.00
13367;BME280;6752;52.612;13.630;2022-10-03T08:54:12;101414.92;;;14.52;100.00
13367;BME280;6752;52.612;13.630;2022-10-03T08:59:17;101418.42;;;14.28;100.00
13367;BME280;6752;52.612;13.630;2022-10-03T09:04:27;101416.31;;;14.76;100.00
13367;BME280;6752;52.612;13.630;2022-10-03T09:09:40;101412.47;;;14.71;100.00
13367;BME280;6752;52.612;13.630;2022-10-03T09:15:00;101418.75;;;14.75;100.00
13367;BME280;6752;52.612;13.630;2022-10-03T09:35:58;101413.20;;;16.64;95.00
13367;BME280;6752;52.612;13.630;2022-10-03T10:02:18;101427.91;;;16.26;87.66
13367;BME280;6752;52.612;13.630;2022-10-03T10:07:29;101419.31;;;16.92;87.39
13367;BME280;6752;52.612;13.630;2022-10-03T10:13:04;101426.63;;;16.67;86.93
13367;BME280;6752;52.612;13.630;2022-10-03T10:18:32;101425.56;;;16.88;86.09
13367;BME280;6752;52.612;13.630;2022-10-03T10:29:33;101411.70;;;16.39;90.23
13367;BME280;6752;52.612;13.630;2022-10-03T10:40:40;101427.89;;;16.44;94.17
13367;BME280;6752;52.612;13.630;2022-10-03T10:45:42;101419.27;;;17.18;88.74
13367;BME280;6752;52.612;13.630;2022-10-03T11:07:09;101414.16;;;18.22;82.68
13367;BME280;6752;52.612;13.630;2022-10-03T11:23:20;101414.92;;;19.27;76.81
13367;BME280;6752;52.612;13.630;2022-10-03T11:39:08;101418.91;;;18.77;78.61
13367;BME280;6752;52.612;13.630;2022-10-03T11:44:15;101413.00;;;17.93;82.38
13367;BME280;6752;52.612;13.630;2022-10-03T11:54:33;101409.05;;;17.87;85.80
13367;BME280;6752;52.612;13.630;2022-10-03T11:59:48;101402.09;;;18.20;83.60
13367;BME280;6752;52.612;13.630;2022-10-03T12:05:06;101397.60;;;17.24;85.86
13367;BME280;6752;52.612;13.630;2022-10-03T12:10:28;101405.56;;;17.01;92.30
13367;BME280;6752;52.612;13.630;2022-10-03T12:20:57;101395.84;;;17.10;90.41
13367;BME280;6752;52.612;13.630;2022-10-03T12:25:55;101400.61;;;17.23;90.00
13367;BME280;6752;52.612;13.630;2022-10-03T12:31:01;101404.92;;;16.96;92.92
13367;BME280;6752;52.612;13.630;2022-10-03T12:36:17;101399.25;;;16.94;91.97
13367;BME280;6752;52.612;13.630;2022-10-03T12:41:29;101409.31;;;16.37;99.69
13367;BME280;6752;52.612;13.630;2022-10-03T12:46:44;101413.27;;;16.18;100.00
13367;BME280;6752;52.612;13.630;2022-10-03T12:51:46;101411.12;;;16.20;100.00
13367;BME280;6752;52.612;13.630;2022-10-03T12:56:59;101403.89;;;17.00;97.90
13367;BME280;6752;52.612;13.630;2022-10-03T13:02:19;101408.95;;;16.65;93.85
13367;BME280;6752;52.612;13.630;2022-10-03T13:07:59;101402.69;;;17.38;90.97
13367;BME280;6752;52.612;13.630;2022-10-03T13:12:36;101397.64;;;17.41;89.26
13367;BME280;6752;52.612;13.630;2022-10-03T13:17:39;101401.85;;;17.15;88.49
13367;BME280;6752;52.612;13.630;2022-10-03T13:28:22;101412.13;;;16.71;91.96
13367;BME280;6752;52.612;13.630;2022-10-03T13:33:24;101409.64;;;16.58;91.00
13367;BME280;6752;52.612;13.630;2022-10-03T13:38:32;101398.05;;;16.82;90.04
13367;BME280;6752;52.612;13.630;2022-10-03T13:43:31;101400.48;;;16.49;89.67
13367;BME280;6752;52.612;13.630;2022-10-03T13:48:32;101391.62;;;16.33;91.78
13367;BME280;6752;52.612;13.630;2022-10-03T13:53:57;101397.82;;;16.28;92.19
13367;BME280;6752;52.612;13.630;2022-10-03T14:47:30;101399.47;;;16.79;84.25
13367;BME280;6752;52.612;13.630;2022-10-03T14:51:49;101407.03;;;16.66;83.28
13367;BME280;6752;52.612;13.630;2022-10-03T14:56:50;101402.92;;;16.54;87.18
13367;BME280;6752;52.612;13.630;2022-10-03T15:01:55;101400.94;;;16.38;87.08
13367;BME280;6752;52.612;13.630;2022-10-03T15:06:57;101396.26;;;16.32;87.91
13367;BME280;6752;52.612;13.630;2022-10-03T15:12:20;101399.20;;;16.72;87.00
13367;BME280;6752;52.612;13.630;2022-10-03T15:17:30;101395.86;;;16.90;87.45
13367;BME280;6752;52.612;13.630;2022-10-03T15:22:39;101392.17;;;16.84;84.64
13367;BME280;6752;52.612;13.630;2022-10-03T15:27:42;101400.11;;;16.37;88.50
13367;BME280;6752;52.612;13.630;2022-10-03T15:32:44;101397.17;;;16.24;88.76
13367;BME280;6752;52.612;13.630;2022-10-03T15:37:47;101406.56;;;16.08;89.52
13367;BME280;6752;52.612;13.630;2022-10-03T15:48:23;101409.98;;;16.01;90.86
13367;BME280;6752;52.612;13.630;2022-10-03T15:53:30;101409.63;;;15.91;90.72
13367;BME280;6752;52.612;13.630;2022-10-03T15:58:32;101412.09;;;15.90;92.04
13367;BME280;6752;52.612;13.630;2022-10-03T16:03:53;101409.08;;;15.74;92.02
13367;BME280;6752;52.612;13.630;2022-10-03T16:29:35;101418.77;;;15.14;94.84
13367;BME280;6752;52.612;13.630;2022-10-03T16:34:40;101422.27;;;14.97;96.14
13367;BME280;6752;52.612;13.630;2022-10-03T16:39:41;101423.29;;;14.75;97.47
13367;BME280;6752;52.612;13.630;2022-10-03T16:49:57;101418.02;;;14.65;97.89
13367;BME280;6752;52.612;13.630;2022-10-03T16:55:26;101416.92;;;14.59;98.69
13367;BME280;6752;52.612;13.630;2022-10-03T17:00:32;101415.03;;;14.51;99.87
13367;BME280;6752;52.612;13.630;2022-10-03T17:05:28;101414.38;;;14.52;100.00
13367;BME280;6752;52.612;13.630;2022-10-03T17:10:39;101417.55;;;14.53;98.68
13367;BME280;6752;52.612;13.630;2022-10-03T17:15:48;101416.23;;;14.15;100.00
13367;BME280;6752;52.612;13.630;2022-10-03T17:20:52;101412.38;;;14.23;100.00
13367;BME280;6752;52.612;13.630;2022-10-03T17:26:01;101416.77;;;13.68;100.00
13367;BME280;6752;52.612;13.630;2022-10-03T17:31:02;101410.45;;;13.68;100.00
13367;BME280;6752;52.612;13.630;2022-10-03T17:36:32;101416.56;;;13.66;100.00
13367;BME280;6752;52.612;13.630;2022-10-03T17:41:30;101416.20;;;13.72;100.00
13367;BME280;6752;52.612;13.630;2022-10-03T17:46:42;101422.75;;;13.30;100.00
13367;BME280;6752;52.612;13.630;2022-10-03T17:51:43;101409.09;;;13.40;100.00
13367;BME280;6752;52.612;13.630;2022-10-03T17:56:55;101411.16;;;13.32;100.00
13367;BME280;6752;52.612;13.630;2022-10-03T18:01:58;101414.77;;;13.29;100.00
13367;BME280;6752;52.612;13.630;2022-10-03T18:07:08;101413.76;;;13.36;100.00
13367;BME280;6752;52.612;13.630;2022-10-03T18:12:15;101416.61;;;13.35;100.00
13367;BME280;6752;52.612;13.630;2022-10-03T18:17:17;101417.48;;;13.45;100.00
13367;BME280;6752;52.612;13.630;2022-10-03T18:22:27;101417.44;;;13.48;100.00
13367;BME280;6752;52.612;13.630;2022-10-03T18:32:55;101408.95;;;13.31;100.00
13367;BME280;6752;52.612;13.630;2022-10-03T18:43:50;101405.29;;;13.28;100.00
13367;BME280;6752;52.612;13.630;2022-10-03T18:48:39;101407.03;;;13.13;100.00
13367;BME280;6752;52.612;13.630;2022-10-03T18:53:36;101415.47;;;13.11;100.00
13367;BME280;6752;52.612;13.630;2022-10-03T18:58:43;101416.37;;;13.02;100.00
13367;BME280;6752;52.612;13.630;2022-10-03T19:03:57;101430.56;;;13.04;100.00
13367;BME280;6752;52.612;13.630;2022-10-03T19:08:49;101430.14;;;13.04;100.00
13367;BME280;6752;52.612;13.630;2022-10-03T19:13:55;101425.70;;;13.06;100.00
13367;BME280;6752;52.612;13.630;2022-10-03T19:19:04;101422.86;;;13.07;100.00
13367;BME280;6752;52.612;13.630;2022-10-03T19:24:16;101420.06;;;13.01;100.00
13367;BME280;6752;52.612;13.630;2022-10-03T19:29:18;101430.95;;;12.89;100.00
13367;BME280;6752;52.612;13.630;2022-10-03T19:34:19;101425.78;;;12.90;100.00
13367;BME280;6752;52.612;13.630;2022-10-03T19:39:21;101425.36;;;12.90;100.00
13367;BME280;6752;52.612;13.630;2022-10-03T19:44:26;101422.02;;;13.07;100.00
13367;BME280;6752;52.612;13.630;2022-10-03T19:55:34;101419.97;;;13.15;100.00
13367;BME280;6752;52.612;13.630;2022-10-03T20:00:04;101427.21;;;13.21;100.00
13367;BME280;6752;52.612;13.630;2022-10-03T20:05:05;101429.53;;;13.21;100.00
13367;BME280;6752;52.612;13.630;2022-10-03T20:10:29;101428.31;;;13.33;100.00
13367;BME280;6752;52.612;13.630;2022-10-03T20:15:33;101425.05;;;13.33;100.00
13367;BME280;6752;52.612;13.630;2022-10-03T20:20:30;101413.50;;;13.41;100.00
13367;BME280;6752;52.612;13.630;2022-10-03T20:25:43;101420.66;;;13.42;100.00
13367;BME280;6752;52.612;13.630;2022-10-03T20:30:51;101417.64;;;13.37;100.00
13367;BME280;6752;52.612;13.630;2022-10-03T20:35:59;101407.83;;;13.39;100.00
13367;BME280;6752;52.612;13.630;2022-10-03T20:41:19;101415.32;;;13.38;100.00
13367;BME280;6752;52.612;13.630;2022-10-03T20:46:32;101415.66;;;13.48;100.00
13367;BME280;6752;52.612;13.630;2022-10-03T20:52:07;101412.08;;;13.47;100.00
13367;BME280;6752;52.612;13.630;2022-10-03T20:56:56;101413.28;;;13.58;100.00
13367;BME280;6752;52.612;13.630;2022-10-03T21:02:03;101422.90;;;13.55;100.00
13367;BME280;6752;52.612;13.630;2022-10-03T21:07:16;101419.55;;;13.53;100.00
13367;BME280;6752;52.612;13.630;2022-10-03T21:12:18;101429.41;;;13.57;100.00
13367;BME280;6752;52.612;13.630;2022-10-03T21:17:20;101434.27;;;13.55;100.00
13367;BME280;6752;52.612;13.630;2022-10-03T21:22:22;101426.80;;;13.65;100.00
13367;BME280;6752;52.612;13.630;2022-10-03T21:27:25;101430.19;;;13.64;100.00
13367;BME280;6752;52.612;13.630;2022-10-03T21:43:27;101421.45;;;13.77;100.00
13367;BME280;6752;52.612;13.630;2022-10-03T21:48:35;101420.39;;;13.78;100.00
13367;BME280;6752;52.612;13.630;2022-10-03T21:53:53;101411.45;;;13.77;100.00
13367;BME280;6752;52.612;13.630;2022-10-03T22:09:26;101400.39;;;13.62;100.00
13367;BME280;6752;52.612;13.630;2022-10-03T22:14:45;101406.06;;;13.63;100.00
13367;BME280;6752;52.612;13.630;2022-10-03T22:25:19;101398.62;;;13.74;100.00
13367;BME280;6752;52.612;13.630;2022-10-03T22:30:17;101400.41;;;13.74;100.00
13367;BME280;6752;52.612;13.630;2022-10-03T22:40:37;101392.98;;;13.78;100.00
13367;BME280;6752;52.612;13.630;2022-10-03T22:45:45;101390.78;;;13.77;100.00
13367;BME280;6752;52.612;13.630;2022-10-03T22:50:46;101392.98;;;13.78;100.00
13367;BME280;6752;52.612;13.630;2022-10-03T22:55:49;101393.95;;;13.87;100.00
13367;BME280;6752;52.612;13.630;2022-10-03T23:00:54;101392.39;;;13.85;100.00
13367;BME280;6752;52.612;13.630;2022-10-03T23:11:20;101385.45;;;13.82;100.00
13367;BME280;6752;52.612;13.630;2022-10-03T23:21:50;101390.44;;;13.80;100.00
13367;BME280;6752;52.612;13.630;2022-10-03T23:27:25;101393.84;;;13.88;100.00
13367;BME280;6752;52.612;13.630;2022-10-03T23:37:48;101392.08;;;13.72;100.00
13367;BME280;6752;52.612;13.630;2022-10-03T23:43:21;101393.30;;;13.79;100.00
13367;BME280;6752;52.612;13.630;2022-10-03T23:48:03;101398.16;;;13.77;100.00
13367;BME280;6752;52.612;13.630;2022-10-03T23:53:04;101401.52;;;13.79;100.00
13367;BME280;6752;52.612;13.630;2022-10-03T23:58:31;101404.83;;;13.84;100.00
